x

Folly Island, Sc (fbis1) Weather Station

12:00am - Sat 21st Jan 2017 All times are EST. -5 hours from GMT.

  • Wind
    6mph
  • Air Temp 59°f
  • Sea Pressure 1013.8mb
  • Folly Island, Sc
  • Folly Island, Sc

More Historic Weather Station data

Upgrade to MSW Pro to gain access to the past 30 days of data for over 8000 Wavebouys and Weather Stations around the globe.

Join Pro

Comparision Forecast

View Surf forecast
   
Sat 01/21 12:00am 6
mph
1013.8mb 59f
Fri 01/20 11:00pm 7 8 mph 1014mb 60f
10:00pm 7 9 mph 1014mb 62f
9:00pm 7 9 mph 1013.7mb 62f
8:00pm 6 7 mph 1013mb 59f
7:00pm 6 7 mph 1012.7mb 59f
6:00pm 7 8 mph 1012.3mb 59f
5:00pm 9 11 mph 1012mb 61f
4:00pm 9 10 mph 1011.6mb 63f
3:00pm 8 13 mph 1011.4mb 65f
2:00pm 16 18 mph 1011.9mb 62f
1:00pm 15 17 mph 1012.3mb 64f
12:00pm 7 8 mph 1012.7mb 62f
11:00am 7 8 mph 1013.7mb 60f
10:00am 5 6 mph 1013.9mb 62f
9:00am 5
mph
1013.4mb 59f
8:00am 6
mph
1013mb 59f
7:00am 2
mph
1013.4mb 58f
6:00am  -  1 mph 1013mb 58f
5:00am 2
mph
1013.2mb 57f
4:00am 2
mph
1013.9mb 57f
3:00am 6 7 mph 1013.8mb 57f
2:00am 5 6 mph 1014.7mb 57f
1:00am 7
mph
1014.8mb 58f
12:00am 6 7 mph 1015mb 57f
Thu 01/19 11:00pm 7 8 mph 1015.6mb 57f
10:00pm 5 6 mph 1015.7mb 57f
9:00pm 10 11 mph 1015.3mb 57f
8:00pm 11 14 mph 1016mb 57f
7:00pm 11 14 mph 1016.4mb 57f
6:00pm 11 13 mph 1016.4mb 57f
5:00pm 13 15 mph 1016.3mb 57f
4:00pm 15 16 mph 1016.3mb 57f
3:00pm 16 18 mph 1016.3mb 57f
2:00pm 16 20 mph 1016.5mb 58f
1:00pm 16 20 mph 1017.1mb 58f
12:00pm 16 18 mph 1017.9mb 58f
11:00am 17 20 mph 1018.7mb 58f
10:00am 9 11 mph 1018.6mb 58f
9:00am 8 10 mph 1018.2mb 56f
8:00am 5 6 mph 1017.6mb 55f
7:00am 3
mph
1017.2mb 57f
6:00am  -  mph 1016.9mb 56f
5:00am 3
mph
1016.6mb 57f
4:00am 2
mph
1016.4mb 59f
3:00am 3
mph
1016.9mb 60f
2:00am 3 5 mph 1016.9mb 61f
1:00am 3 7 mph 1016.5mb 63f
12:00am 5 7 mph 1017mb 63f
Wed 01/18 11:00pm 6 8 mph 1017.5mb 64f
10:00pm 5
mph
1017.7mb 64f
9:00pm 5 7 mph 1017.4mb 64f
8:00pm 5 6 mph 1017mb 64f
7:00pm 6 7 mph 1016.7mb 60f
6:00pm 9
mph
1016.3mb 60f
5:00pm 15 17 mph 1015.9mb 62f
4:00pm 17 18 mph 1015.6mb 62f
3:00pm 15 18 mph 1016.3mb 62f
2:00pm 20 22 mph 1016.3mb 62f
1:00pm 20 22 mph 1017.2mb 62f
12:00pm 11 18 mph 1018.7mb 71f
11:00am 11 17 mph 1020.2mb 71f
10:00am 10 13 mph 1020.3mb 60f
9:00am 9 11 mph 1020mb 58f
8:00am 5 7 mph 1019.9mb 58f
7:00am 8 9 mph 1019.8mb 57f
6:00am 7 9 mph 1019.6mb 58f
5:00am 8 11 mph 1019.2mb 59f
4:00am 10 13 mph 1019.3mb 59f
3:00am 13 17 mph 1020mb 60f
2:00am 11 15 mph 1020.3mb 59f
1:00am 9 15 mph 1020.9mb 61f
12:00am 9 13 mph 1021.6mb 61f
Tue 01/17 11:00pm 5 6 mph 1022.5mb 60f
10:00pm 6 8 mph 1023mb 60f
9:00pm 7 9 mph 1023.2mb 59f
8:00pm 6
mph
1022.9mb 59f
7:00pm 8 9 mph 1023.4mb 59f
6:00pm 9 10 mph 1022.7mb 59f
5:00pm 5 6 mph 1023mb 59f
4:00pm 6 7 mph 1022.8mb 60f
3:00pm 6 7 mph 1022.8mb 61f
2:00pm 7 8 mph 1023.2mb 61f
1:00pm 7
mph
1024.1mb 61f
12:00pm 2
mph
1025.1mb 61f
11:00am 3 5 mph 1025.9mb 60f
10:00am 5 6 mph 1025.7mb 57f
9:00am 3 5 mph 1025.5mb 56f
8:00am 5 6 mph 1025.1mb 55f
7:00am 6 7 mph 1024.9mb 55f